Thunder radar more information blitzortung!


Radar de pluja more information rain snow radar


Visita la nostra xarxa de llocs de meteo:

Template documentation
and downloads

And another site



No particular awareness of the weather is required.    There are no Weather-warnings

Pagina Historial Weather Underground text

Diari Resum Juny 2, 2017 Unitats:  Tant    Imperial   Mètric
« Previous Dia
SegĂźent Dia »
Diari Setmana Mensual Anual Personalitzada
  Maxima: Minima: Media:
Temperatura: 88 °F /  31.1 °C 59.7 °F /  15.4 °C 77 °F /  25 °C
Punt de rosada: 62.8 °F /  17.1 °C 49.1 °F /  9.5 °C 56.7 °F /  13.7 °C
Humitat: 72 % 38 % 51 %
Wind Speed: 10.9 mph /  17.5 km/h - 4.3 mph /  6.9 km/h
RĂ fegues de vent: 10.9 mph /  17.5 km/h - -
Vent:- - SSW
Pression baro: 30.1 in /  1018.8 hPa 30 in /  1014.8 hPa -
Precipitacions: 0 in /  0.0 mm    
Historical Graphs
 
 
Dades de taula per Juny 2, 2017
Temps Temperatura Punt de rosada Pression baro Vent Wind Speed RĂ fegues de vent Humitat Rainfall Rate (Hourly)
00:01 67.3 °F /  19.6 °C 49.6 °F /  9.8 °C 30.1 in /  1018.8 hPa Calm     53 % 0 in /  0.0 mm
00:06 67.1 °F /  19.5 °C 49.5 °F /  9.7 °C 30.1 in /  1017.8 hPa Calm     53 % 0 in /  0.0 mm
00:11 66.7 °F /  19.3 °C 49.1 °F /  9.5 °C 30.1 in /  1017.8 hPa Calm     53 % 0 in /  0.0 mm
00:15 62.6 °F /  17.0 °C 52 °F /  11.1 °C 30 in /  1016.8 hPa Calm     68 % 0 in /  0.0 mm
00:16 66.6 °F /  19.2 °C 49.5 °F /  9.7 °C 30.1 in /  1017.8 hPa Calm     54 % 0 in /  0.0 mm
00:25 62.6 °F /  17.0 °C 52 °F /  11.1 °C 30 in /  1016.8 hPa NNW 1 mph /  1.6 km/h 1 mph /  1.6 km/h 68 % 0 in /  0.0 mm
00:35 62.2 °F /  16.8 °C 51.4 °F /  10.8 °C 30 in /  1016.8 hPa Calm   2 mph /  3.2 km/h 68 % 0 in /  0.0 mm
00:45 61.7 °F /  16.5 °C 51.4 °F /  10.8 °C 30 in /  1016.8 hPa Calm   2 mph /  3.2 km/h 69 % 0 in /  0.0 mm
00:55 61.2 °F /  16.2 °C 50.9 °F /  10.5 °C 30 in /  1016.8 hPa Calm   2 mph /  3.2 km/h 69 % 0 in /  0.0 mm
01:05 60.4 °F /  15.8 °C 50.2 °F /  10.1 °C 30 in /  1016.8 hPa SW 1 mph /  1.6 km/h 2 mph /  3.2 km/h 69 % 0 in /  0.0 mm
01:15 60.1 °F /  15.6 °C 49.8 °F /  9.9 °C 30 in /  1016.8 hPa WSW 2 mph /  3.2 km/h 3 mph /  4.8 km/h 69 % 0 in /  0.0 mm
01:25 59.7 °F /  15.4 °C 49.8 °F /  9.9 °C 30 in /  1016.8 hPa SW 3 mph /  4.8 km/h 3 mph /  4.8 km/h 70 % 0 in /  0.0 mm
01:35 59.7 °F /  15.4 °C 50.7 °F /  10.4 °C 30 in /  1016.8 hPa SW 1 mph /  1.6 km/h 2 mph /  3.2 km/h 72 % 0 in /  0.0 mm
01:45 59.9 °F /  15.5 °C 50.7 °F /  10.4 °C 30 in /  1016.8 hPa SW 2 mph /  3.2 km/h 2 mph /  3.2 km/h 72 % 0 in /  0.0 mm
01:55 60.1 °F /  15.6 °C 51.1 °F /  10.6 °C 30 in /  1016.8 hPa SW 2 mph /  3.2 km/h 3 mph /  4.8 km/h 72 % 0 in /  0.0 mm
02:05 60.3 °F /  15.7 °C 51.3 °F /  10.7 °C 30.1 in /  1017.8 hPa SW 1 mph /  1.6 km/h 2 mph /  3.2 km/h 72 % 0 in /  0.0 mm
02:15 61.2 °F /  16.2 °C 52.2 °F /  11.2 °C 30.1 in /  1017.8 hPa Calm   1 mph /  1.6 km/h 72 % 0 in /  0.0 mm
02:25 62.1 °F /  16.7 °C 52.5 °F /  11.4 °C 30.1 in /  1017.8 hPa Calm   1 mph /  1.6 km/h 71 % 0 in /  0.0 mm
02:35 63.3 °F /  17.4 °C 53.4 °F /  11.9 °C 30.1 in /  1017.8 hPa South 1 mph /  1.6 km/h 2 mph /  3.2 km/h 70 % 0 in /  0.0 mm
02:45 64 °F /  17.8 °C 53.2 °F /  11.8 °C 30.1 in /  1017.8 hPa ENE 1 mph /  1.6 km/h 2 mph /  3.2 km/h 68 % 0 in /  0.0 mm
02:55 64.4 °F /  18.0 °C 53.6 °F /  12.0 °C 30.1 in /  1017.8 hPa NE 2 mph /  3.2 km/h 2 mph /  3.2 km/h 68 % 0 in /  0.0 mm
03:05 64.8 °F /  18.2 °C 53.4 °F /  11.9 °C 30.1 in /  1017.8 hPa ENE 2 mph /  3.2 km/h 4 mph /  6.4 km/h 67 % 0 in /  0.0 mm
03:15 65.5 °F /  18.6 °C 53.8 °F /  12.1 °C 30.1 in /  1017.8 hPa ENE 2 mph /  3.2 km/h 3 mph /  4.8 km/h 66 % 0 in /  0.0 mm
03:25 66.2 °F /  19.0 °C 53.8 °F /  12.1 °C 30.1 in /  1017.8 hPa NE 2 mph /  3.2 km/h 2 mph /  3.2 km/h 64 % 0 in /  0.0 mm
03:35 67.6 °F /  19.8 °C 54.7 °F /  12.6 °C 30.1 in /  1017.8 hPa NNE 1 mph /  1.6 km/h 2 mph /  3.2 km/h 63 % 0 in /  0.0 mm
03:45 67.1 °F /  19.5 °C 53.6 °F /  12.0 °C 30.1 in /  1017.8 hPa WSW 1 mph /  1.6 km/h 3 mph /  4.8 km/h 62 % 0 in /  0.0 mm
03:55 68.7 °F /  20.4 °C 55.2 °F /  12.9 °C 30.1 in /  1017.8 hPa SSW 1 mph /  1.6 km/h 2 mph /  3.2 km/h 62 % 0 in /  0.0 mm
04:10 69.4 °F /  20.8 °C 55.4 °F /  13.0 °C 30.1 in /  1017.8 hPa South 1 mph /  1.6 km/h 3 mph /  4.8 km/h 61 % 0 in /  0.0 mm
04:20 70 °F /  21.1 °C 55.6 °F /  13.1 °C 30.1 in /  1017.8 hPa SW 2 mph /  3.2 km/h 3 mph /  4.8 km/h 60 % 0 in /  0.0 mm
04:30 71.1 °F /  21.7 °C 55.9 °F /  13.3 °C 30.1 in /  1017.8 hPa SSW 3 mph /  4.8 km/h 4 mph /  6.4 km/h 59 % 0 in /  0.0 mm
04:40 72.5 °F /  22.5 °C 56.8 °F /  13.8 °C 30.1 in /  1017.8 hPa SSW 1 mph /  1.6 km/h 3 mph /  4.8 km/h 58 % 0 in /  0.0 mm
04:50 73.2 °F /  22.9 °C 56.7 °F /  13.7 °C 30.1 in /  1017.8 hPa SW 3 mph /  4.8 km/h 3 mph /  4.8 km/h 56 % 0 in /  0.0 mm
05:00 73.8 °F /  23.2 °C 57 °F /  13.9 °C 30.1 in /  1017.8 hPa SW 1 mph /  1.6 km/h 3 mph /  4.8 km/h 56 % 0 in /  0.0 mm
05:10 74.5 °F /  23.6 °C 57.7 °F /  14.3 °C 30.1 in /  1017.8 hPa SW 2 mph /  3.2 km/h 6 mph /  9.7 km/h 56 % 0 in /  0.0 mm
05:20 74.7 °F /  23.7 °C 57.9 °F /  14.4 °C 30.1 in /  1017.8 hPa SW 2 mph /  3.2 km/h 5 mph /  8.0 km/h 56 % 0 in /  0.0 mm
10:21 74.7 °F /  23.7 °C 57.9 °F /  14.4 °C 30.1 in /  1017.8 hPa WSW 3.5 mph /  5.6 km/h 3.8 mph /  6.1 km/h 56 % 0 in /  0.0 mm
10:26 74.8 °F /  23.8 °C 58.1 °F /  14.5 °C 30.1 in /  1017.8 hPa SSW 3.3 mph /  5.3 km/h 3.3 mph /  5.3 km/h 56 % 0 in /  0.0 mm
10:31 74.8 °F /  23.8 °C 58.1 °F /  14.5 °C 30.1 in /  1017.8 hPa West 4.6 mph /  7.4 km/h 4.6 mph /  7.4 km/h 56 % 0 in /  0.0 mm
10:36 75 °F /  23.9 °C 58.3 °F /  14.6 °C 30.1 in /  1017.8 hPa SSW 4.9 mph /  7.9 km/h 4.9 mph /  7.9 km/h 56 % 0 in /  0.0 mm
10:41 75.6 °F /  24.2 °C 58.3 °F /  14.6 °C 30.1 in /  1017.8 hPa SSW 4.7 mph /  7.6 km/h 4.7 mph /  7.6 km/h 55 % 0 in /  0.0 mm
10:46 76.3 °F /  24.6 °C 58.5 °F /  14.7 °C 30.1 in /  1017.8 hPa South 5.8 mph /  9.3 km/h 5.8 mph /  9.3 km/h 54 % 0 in /  0.0 mm
10:51 76.3 °F /  24.6 °C 58.5 °F /  14.7 °C 30.1 in /  1017.8 hPa ESE 3.5 mph /  5.6 km/h 3.5 mph /  5.6 km/h 54 % 0 in /  0.0 mm
10:56 77.4 °F /  25.2 °C 58.8 °F /  14.9 °C 30.1 in /  1017.8 hPa WSW 2.3 mph /  3.7 km/h 2.4 mph /  3.9 km/h 53 % 0 in /  0.0 mm
11:01 78.6 °F /  25.9 °C 60.1 °F /  15.6 °C 30.1 in /  1017.8 hPa SW 3.8 mph /  6.1 km/h 3.8 mph /  6.1 km/h 53 % 0 in /  0.0 mm
11:06 78.4 °F /  25.8 °C 59.4 °F /  15.2 °C 30 in /  1016.8 hPa South 3.5 mph /  5.6 km/h 3.5 mph /  5.6 km/h 52 % 0 in /  0.0 mm
11:11 79 °F /  26.1 °C 59.4 °F /  15.2 °C 30 in /  1016.8 hPa SSW 2.3 mph /  3.7 km/h 2.3 mph /  3.7 km/h 51 % 0 in /  0.0 mm
11:16 79.7 °F /  26.5 °C 60.1 °F /  15.6 °C 30 in /  1016.8 hPa SSW 5.8 mph /  9.3 km/h 5.8 mph /  9.3 km/h 51 % 0 in /  0.0 mm
11:21 79.5 °F /  26.4 °C 59.7 °F /  15.4 °C 30 in /  1016.8 hPa South 4.6 mph /  7.4 km/h 4.6 mph /  7.4 km/h 51 % 0 in /  0.0 mm
11:26 80.1 °F /  26.7 °C 59.7 °F /  15.4 °C 30 in /  1016.8 hPa WSW 4.6 mph /  7.4 km/h 4.6 mph /  7.4 km/h 50 % 0 in /  0.0 mm
11:31 80.1 °F /  26.7 °C 59.7 °F /  15.4 °C 30 in /  1016.8 hPa South 4.6 mph /  7.4 km/h 4.6 mph /  7.4 km/h 50 % 0 in /  0.0 mm
11:36 80.4 °F /  26.9 °C 60.1 °F /  15.6 °C 30 in /  1016.8 hPa SSE 4.6 mph /  7.4 km/h 4.6 mph /  7.4 km/h 50 % 0 in /  0.0 mm
11:41 80.4 °F /  26.9 °C 59.5 °F /  15.3 °C 30 in /  1016.8 hPa South 4.6 mph /  7.4 km/h 4.6 mph /  7.4 km/h 49 % 0 in /  0.0 mm
11:46 81.5 °F /  27.5 °C 59.9 °F /  15.5 °C 30 in /  1016.8 hPa South 3.5 mph /  5.6 km/h 3.5 mph /  5.6 km/h 48 % 0 in /  0.0 mm
11:51 82 °F /  27.8 °C 59.7 °F /  15.4 °C 30 in /  1015.8 hPa SSE 4.6 mph /  7.4 km/h 4.6 mph /  7.4 km/h 47 % 0 in /  0.0 mm
11:56 82.4 °F /  28.0 °C 60.1 °F /  15.6 °C 30 in /  1015.8 hPa SW 2.3 mph /  3.7 km/h 2.3 mph /  3.7 km/h 47 % 0 in /  0.0 mm
12:01 82.2 °F /  27.9 °C 60.1 °F /  15.6 °C 30 in /  1015.8 hPa SW 6.9 mph /  11.1 km/h 6.9 mph /  11.1 km/h 47 % 0 in /  0.0 mm
12:06 81.3 °F /  27.4 °C 58.6 °F /  14.8 °C 30 in /  1016.8 hPa SW 9.2 mph /  14.8 km/h 9.2 mph /  14.8 km/h 46 % 0 in /  0.0 mm
12:11 81.5 °F /  27.5 °C 58.6 °F /  14.8 °C 30 in /  1016.8 hPa SW 6.2 mph /  10.0 km/h 6.2 mph /  10.0 km/h 46 % 0 in /  0.0 mm
12:16 81.3 °F /  27.4 °C 57.9 °F /  14.4 °C 30 in /  1016.8 hPa South 5.8 mph /  9.3 km/h 5.8 mph /  9.3 km/h 45 % 0 in /  0.0 mm
12:21 81.7 °F /  27.6 °C 58.3 °F /  14.6 °C 30 in /  1016.8 hPa WSW 8.1 mph /  13.0 km/h 8.1 mph /  13.0 km/h 45 % 0 in /  0.0 mm
12:26 82 °F /  27.8 °C 58.6 °F /  14.8 °C 30 in /  1016.8 hPa SSW 5.8 mph /  9.3 km/h 5.8 mph /  9.3 km/h 45 % 0 in /  0.0 mm
12:31 83.1 °F /  28.4 °C 59.5 °F /  15.3 °C 30 in /  1016.8 hPa WSW 5.8 mph /  9.3 km/h 5.8 mph /  9.3 km/h 45 % 0 in /  0.0 mm
12:36 83.1 °F /  28.4 °C 59.5 °F /  15.3 °C 30 in /  1016.8 hPa SSW 6.9 mph /  11.1 km/h 6.9 mph /  11.1 km/h 45 % 0 in /  0.0 mm
12:41 82.9 °F /  28.3 °C 58.8 °F /  14.9 °C 30 in /  1016.8 hPa South 4.9 mph /  7.9 km/h 4.9 mph /  7.9 km/h 44 % 0 in /  0.0 mm
12:46 83.7 °F /  28.7 °C 59.4 °F /  15.2 °C 30 in /  1016.8 hPa SW 6.4 mph /  10.3 km/h 6.4 mph /  10.3 km/h 44 % 0 in /  0.0 mm
12:51 83.3 °F /  28.5 °C 58.5 °F /  14.7 °C 30 in /  1015.8 hPa WSW 7.4 mph /  11.9 km/h 7.4 mph /  11.9 km/h 43 % 0 in /  0.0 mm
12:56 83.7 °F /  28.7 °C 58.8 °F /  14.9 °C 30 in /  1015.8 hPa WSW 8.1 mph /  13.0 km/h 8.1 mph /  13.0 km/h 43 % 0 in /  0.0 mm
13:01 84.6 °F /  29.2 °C 58.8 °F /  14.9 °C 30 in /  1015.8 hPa SE 3.5 mph /  5.6 km/h 3.5 mph /  5.6 km/h 42 % 0 in /  0.0 mm
13:06 85.5 °F /  29.7 °C 59.7 °F /  15.4 °C 30 in /  1015.8 hPa SW 3.6 mph /  5.8 km/h 3.6 mph /  5.8 km/h 42 % 0 in /  0.0 mm
13:07 85.5 °F /  29.7 °C 59.7 °F /  15.4 °C 30 in /  1015.8 hPa South 4.6 mph /  7.4 km/h 4.6 mph /  7.4 km/h 42 % 0 in /  0.0 mm
13:12 86.7 °F /  30.4 °C 61 °F /  16.1 °C 30 in /  1015.8 hPa SSE 3.5 mph /  5.6 km/h 3.5 mph /  5.6 km/h 42 % 0 in /  0.0 mm
13:17 87.3 °F /  30.7 °C 60.6 °F /  15.9 °C 30 in /  1015.8 hPa SW 3.5 mph /  5.6 km/h 3.5 mph /  5.6 km/h 41 % 0 in /  0.0 mm
13:22 86 °F /  30.0 °C 60.3 °F /  15.7 °C 30 in /  1015.8 hPa South 5.8 mph /  9.3 km/h 5.8 mph /  9.3 km/h 42 % 0 in /  0.0 mm
13:27 84.7 °F /  29.3 °C 59.7 °F /  15.4 °C 30 in /  1015.8 hPa ESE 3.8 mph /  6.1 km/h 3.8 mph /  6.1 km/h 43 % 0 in /  0.0 mm
13:32 84.2 °F /  29.0 °C 59.9 °F /  15.5 °C 30 in /  1015.8 hPa East 5.8 mph /  9.3 km/h 5.8 mph /  9.3 km/h 44 % 0 in /  0.0 mm
13:37 83.5 °F /  28.6 °C 59.9 °F /  15.5 °C 30 in /  1015.8 hPa ESE 6.9 mph /  11.1 km/h 6.9 mph /  11.1 km/h 45 % 0 in /  0.0 mm
13:42 82.8 °F /  28.2 °C 59.4 °F /  15.2 °C 30 in /  1015.8 hPa SE 9.2 mph /  14.8 km/h 9.2 mph /  14.8 km/h 45 % 0 in /  0.0 mm
13:47 82 °F /  27.8 °C 58.6 °F /  14.8 °C 30 in /  1015.8 hPa SE 8.1 mph /  13.0 km/h 8.1 mph /  13.0 km/h 45 % 0 in /  0.0 mm
13:52 82.2 °F /  27.9 °C 59.4 °F /  15.2 °C 30 in /  1015.8 hPa NE 5.8 mph /  9.3 km/h 5.8 mph /  9.3 km/h 46 % 0 in /  0.0 mm
13:57 82.2 °F /  27.9 °C 59.4 °F /  15.2 °C 30 in /  1015.8 hPa WSW 8.1 mph /  13.0 km/h 8.1 mph /  13.0 km/h 46 % 0 in /  0.0 mm
14:02 83.3 °F /  28.5 °C 61 °F /  16.1 °C 30 in /  1015.8 hPa SSE 3.5 mph /  5.6 km/h 3.5 mph /  5.6 km/h 47 % 0 in /  0.0 mm
14:07 83.1 °F /  28.4 °C 60.3 °F /  15.7 °C 30 in /  1015.8 hPa East 4.6 mph /  7.4 km/h 4.6 mph /  7.4 km/h 46 % 0 in /  0.0 mm
14:12 83.3 °F /  28.5 °C 60.4 °F /  15.8 °C 30 in /  1015.8 hPa ESE 5.8 mph /  9.3 km/h 5.8 mph /  9.3 km/h 46 % 0 in /  0.0 mm
14:17 83.3 °F /  28.5 °C 60.4 °F /  15.8 °C 30 in /  1015.8 hPa SSE 5.8 mph /  9.3 km/h 5.8 mph /  9.3 km/h 46 % 0 in /  0.0 mm
14:22 85.1 °F /  29.5 °C 61.3 °F /  16.3 °C 30 in /  1015.8 hPa South 6.9 mph /  11.1 km/h 6.9 mph /  11.1 km/h 45 % 0 in /  0.0 mm
14:27 86 °F /  30.0 °C 61.5 °F /  16.4 °C 30 in /  1015.8 hPa SE 2.3 mph /  3.7 km/h 2.3 mph /  3.7 km/h 44 % 0 in /  0.0 mm
14:32 87.3 °F /  30.7 °C 62.8 °F /  17.1 °C 30 in /  1015.8 hPa South 3.5 mph /  5.6 km/h 3.5 mph /  5.6 km/h 44 % 0 in /  0.0 mm
14:37 87.4 °F /  30.8 °C 62.8 °F /  17.1 °C 30 in /  1015.8 hPa SSW 5.9 mph /  9.5 km/h 5.9 mph /  9.5 km/h 44 % 0 in /  0.0 mm
14:42 86.9 °F /  30.5 °C 61.7 °F /  16.5 °C 30 in /  1015.8 hPa SW 5.8 mph /  9.3 km/h 5.8 mph /  9.3 km/h 43 % 0 in /  0.0 mm
14:47 86.5 °F /  30.3 °C 61.3 °F /  16.3 °C 30 in /  1015.8 hPa South 5.8 mph /  9.3 km/h 5.8 mph /  9.3 km/h 43 % 0 in /  0.0 mm
14:52 87.1 °F /  30.6 °C 61.9 °F /  16.6 °C 30 in /  1014.8 hPa West 5.8 mph /  9.3 km/h 5.8 mph /  9.3 km/h 43 % 0 in /  0.0 mm
14:57 87.1 °F /  30.6 °C 61.2 °F /  16.2 °C 30 in /  1014.8 hPa SW 6.9 mph /  11.1 km/h 6.9 mph /  11.1 km/h 42 % 0 in /  0.0 mm
15:02 86.5 °F /  30.3 °C 60.1 °F /  15.6 °C 30 in /  1014.8 hPa SW 6 mph /  9.7 km/h 6 mph /  9.7 km/h 41 % 0 in /  0.0 mm
15:07 86.7 °F /  30.4 °C 60.3 °F /  15.7 °C 30 in /  1014.8 hPa WSW 6.9 mph /  11.1 km/h 6.9 mph /  11.1 km/h 41 % 0 in /  0.0 mm
15:12 87.8 °F /  31.0 °C 60.4 °F /  15.8 °C 30 in /  1014.8 hPa WNW 4.6 mph /  7.4 km/h 4.6 mph /  7.4 km/h 40 % 0 in /  0.0 mm
15:17 88 °F /  31.1 °C 60.6 °F /  15.9 °C 30 in /  1014.8 hPa SSW 3.5 mph /  5.6 km/h 3.5 mph /  5.6 km/h 40 % 0 in /  0.0 mm
15:22 86.7 °F /  30.4 °C 59.5 °F /  15.3 °C 30 in /  1014.8 hPa South 8.1 mph /  13.0 km/h 8.1 mph /  13.0 km/h 40 % 0 in /  0.0 mm
15:27 87.8 °F /  31.0 °C 59.7 °F /  15.4 °C 30 in /  1014.8 hPa SSW 3.6 mph /  5.8 km/h 3.6 mph /  5.8 km/h 39 % 0 in /  0.0 mm
15:32 86.7 °F /  30.4 °C 58.8 °F /  14.9 °C 30 in /  1014.8 hPa West 9.2 mph /  14.8 km/h 9.2 mph /  14.8 km/h 39 % 0 in /  0.0 mm
15:37 86.4 °F /  30.2 °C 58.5 °F /  14.7 °C 30 in /  1014.8 hPa WSW 8.1 mph /  13.0 km/h 8.1 mph /  13.0 km/h 39 % 0 in /  0.0 mm
15:42 86.9 °F /  30.5 °C 59 °F /  15.0 °C 30 in /  1014.8 hPa SSW 5.8 mph /  9.3 km/h 5.8 mph /  9.3 km/h 39 % 0 in /  0.0 mm
15:47 86.5 °F /  30.3 °C 58.6 °F /  14.8 °C 30 in /  1014.8 hPa SW 9.2 mph /  14.8 km/h 9.2 mph /  14.8 km/h 39 % 0 in /  0.0 mm
15:52 86.4 °F /  30.2 °C 57.7 °F /  14.3 °C 30 in /  1014.8 hPa SW 9.2 mph /  14.8 km/h 9.2 mph /  14.8 km/h 38 % 0 in /  0.0 mm
15:57 86 °F /  30.0 °C 58.3 °F /  14.6 °C 30 in /  1014.8 hPa West 6.9 mph /  11.1 km/h 6.9 mph /  11.1 km/h 39 % 0 in /  0.0 mm
16:02 86.7 °F /  30.4 °C 58.1 °F /  14.5 °C 30 in /  1014.8 hPa South 3.5 mph /  5.6 km/h 3.5 mph /  5.6 km/h 38 % 0 in /  0.0 mm
16:07 86.9 °F /  30.5 °C 58.3 °F /  14.6 °C 30 in /  1014.8 hPa SW 6.9 mph /  11.1 km/h 6.9 mph /  11.1 km/h 38 % 0 in /  0.0 mm
16:12 86.4 °F /  30.2 °C 57.7 °F /  14.3 °C 30 in /  1014.8 hPa SSW 8.1 mph /  13.0 km/h 8.1 mph /  13.0 km/h 38 % 0 in /  0.0 mm
16:17 85.5 °F /  29.7 °C 57 °F /  13.9 °C 30 in /  1014.8 hPa SW 8.1 mph /  13.0 km/h 8.1 mph /  13.0 km/h 38 % 0 in /  0.0 mm
16:22 85.6 °F /  29.8 °C 57.7 °F /  14.3 °C 30 in /  1014.8 hPa West 5.8 mph /  9.3 km/h 5.8 mph /  9.3 km/h 39 % 0 in /  0.0 mm
16:27 84.7 °F /  29.3 °C 57 °F /  13.9 °C 30 in /  1014.8 hPa South 6.9 mph /  11.1 km/h 6.9 mph /  11.1 km/h 39 % 0 in /  0.0 mm
16:28 84.7 °F /  29.3 °C 57 °F /  13.9 °C 30 in /  1014.8 hPa SW 6.9 mph /  11.1 km/h 6.9 mph /  11.1 km/h 39 % 0 in /  0.0 mm
16:33 84.7 °F /  29.3 °C 57 °F /  13.9 °C 30 in /  1014.8 hPa West 7.6 mph /  12.2 km/h 7.6 mph /  12.2 km/h 39 % 0 in /  0.0 mm
16:38 84.2 °F /  29.0 °C 56.7 °F /  13.7 °C 30 in /  1014.8 hPa South 8.1 mph /  13.0 km/h 8.1 mph /  13.0 km/h 39 % 0 in /  0.0 mm
16:43 83.7 °F /  28.7 °C 56.8 °F /  13.8 °C 30 in /  1014.8 hPa South 9.2 mph /  14.8 km/h 9.2 mph /  14.8 km/h 40 % 0 in /  0.0 mm
16:48 84.2 °F /  29.0 °C 56.7 °F /  13.7 °C 30 in /  1014.8 hPa South 9.2 mph /  14.8 km/h 9.2 mph /  14.8 km/h 39 % 0 in /  0.0 mm
16:53 84.4 °F /  29.1 °C 56.7 °F /  13.7 °C 30 in /  1014.8 hPa SSW 6.4 mph /  10.3 km/h 6.4 mph /  10.3 km/h 39 % 0 in /  0.0 mm
16:58 84 °F /  28.9 °C 57 °F /  13.9 °C 30 in /  1014.8 hPa SW 10.9 mph /  17.5 km/h 10.9 mph /  17.5 km/h 40 % 0 in /  0.0 mm
17:03 83.7 °F /  28.7 °C 56.8 °F /  13.8 °C 30 in /  1014.8 hPa WNW 9.2 mph /  14.8 km/h 9.2 mph /  14.8 km/h 40 % 0 in /  0.0 mm
17:08 83.7 °F /  28.7 °C 56.8 °F /  13.8 °C 30 in /  1014.8 hPa SW 8.1 mph /  13.0 km/h 8.1 mph /  13.0 km/h 40 % 0 in /  0.0 mm
17:13 83.1 °F /  28.4 °C 56.3 °F /  13.5 °C 30 in /  1014.8 hPa WSW 8.1 mph /  13.0 km/h 8.1 mph /  13.0 km/h 40 % 0 in /  0.0 mm
17:18 82.4 °F /  28.0 °C 55.8 °F /  13.2 °C 30 in /  1014.8 hPa SSW 10.4 mph /  16.7 km/h 10.4 mph /  16.7 km/h 40 % 0 in /  0.0 mm
17:23 82 °F /  27.8 °C 55.9 °F /  13.3 °C 30 in /  1014.8 hPa WSW 10.4 mph /  16.7 km/h 10.4 mph /  16.7 km/h 41 % 0 in /  0.0 mm
17:28 82.6 °F /  28.1 °C 57.2 °F /  14.0 °C 30 in /  1014.8 hPa SW 4.6 mph /  7.4 km/h 4.6 mph /  7.4 km/h 42 % 0 in /  0.0 mm
17:33 83.1 °F /  28.4 °C 57.6 °F /  14.2 °C 30 in /  1014.8 hPa South 6.4 mph /  10.3 km/h 6.4 mph /  10.3 km/h 42 % 0 in /  0.0 mm
17:34 83.1 °F /  28.4 °C 57.6 °F /  14.2 °C 30 in /  1014.8 hPa South 6.9 mph /  11.1 km/h 6.9 mph /  11.1 km/h 42 % 0 in /  0.0 mm
17:39 82 °F /  27.8 °C 56.7 °F /  13.7 °C 30 in /  1014.8 hPa SSW 5.8 mph /  9.3 km/h 5.8 mph /  9.3 km/h 42 % 0 in /  0.0 mm
17:44 82 °F /  27.8 °C 55.9 °F /  13.3 °C 30 in /  1014.8 hPa SW 4.6 mph /  7.4 km/h 4.6 mph /  7.4 km/h 41 % 0 in /  0.0 mm
17:49 82.2 °F /  27.9 °C 56.1 °F /  13.4 °C 30 in /  1014.8 hPa SSW 8.1 mph /  13.0 km/h 8.1 mph /  13.0 km/h 41 % 0 in /  0.0 mm
17:54 82 °F /  27.8 °C 55.9 °F /  13.3 °C 30 in /  1014.8 hPa WSW 6 mph /  9.7 km/h 6 mph /  9.7 km/h 41 % 0 in /  0.0 mm
17:55 81.7 °F /  27.6 °C 55.8 °F /  13.2 °C 30 in /  1014.8 hPa SW 7.1 mph /  11.4 km/h 7.1 mph /  11.4 km/h 41 % 0 in /  0.0 mm
18:00 81.5 °F /  27.5 °C 55.6 °F /  13.1 °C 30 in /  1014.8 hPa South 8.1 mph /  13.0 km/h 8.1 mph /  13.0 km/h 41 % 0 in /  0.0 mm
18:05 81.1 °F /  27.3 °C 55.9 °F /  13.3 °C 30 in /  1014.8 hPa SSW 6.9 mph /  11.1 km/h 6.9 mph /  11.1 km/h 42 % 0 in /  0.0 mm
18:06 81.1 °F /  27.3 °C 55.9 °F /  13.3 °C 30 in /  1014.8 hPa West 5.8 mph /  9.3 km/h 5.8 mph /  9.3 km/h 42 % 0 in /  0.0 mm
18:11 81.7 °F /  27.6 °C 56.5 °F /  13.6 °C 30 in /  1014.8 hPa SSW 9.2 mph /  14.8 km/h 9.2 mph /  14.8 km/h 42 % 0 in /  0.0 mm
18:16 81.7 °F /  27.6 °C 55.8 °F /  13.2 °C 30 in /  1014.8 hPa SW 5.8 mph /  9.3 km/h 5.8 mph /  9.3 km/h 41 % 0 in /  0.0 mm
18:21 81.3 °F /  27.4 °C 55.9 °F /  13.3 °C 30 in /  1014.8 hPa SW 4.6 mph /  7.4 km/h 4.6 mph /  7.4 km/h 42 % 0 in /  0.0 mm
18:26 82 °F /  27.8 °C 56.7 °F /  13.7 °C 30 in /  1014.8 hPa SSE 6.4 mph /  10.3 km/h 6.4 mph /  10.3 km/h 42 % 0 in /  0.0 mm
18:31 81.7 °F /  27.6 °C 56.5 °F /  13.6 °C 30 in /  1014.8 hPa SW 5.9 mph /  9.5 km/h 5.9 mph /  9.5 km/h 42 % 0 in /  0.0 mm
18:36 82 °F /  27.8 °C 56.7 °F /  13.7 °C 30 in /  1014.8 hPa SW 4.9 mph /  7.9 km/h 4.9 mph /  7.9 km/h 42 % 0 in /  0.0 mm
18:41 81.7 °F /  27.6 °C 55.8 °F /  13.2 °C 30 in /  1014.8 hPa SSE 5.8 mph /  9.3 km/h 5.8 mph /  9.3 km/h 41 % 0 in /  0.0 mm
18:46 81.7 °F /  27.6 °C 55.8 °F /  13.2 °C 30 in /  1014.8 hPa SW 3.5 mph /  5.6 km/h 3.5 mph /  5.6 km/h 41 % 0 in /  0.0 mm
18:51 81.5 °F /  27.5 °C 55.6 °F /  13.1 °C 30 in /  1014.8 hPa WSW 6.9 mph /  11.1 km/h 6.9 mph /  11.1 km/h 41 % 0 in /  0.0 mm
18:56 80.6 °F /  27.0 °C 54.7 °F /  12.6 °C 30 in /  1014.8 hPa West 3.6 mph /  5.8 km/h 3.6 mph /  5.8 km/h 41 % 0 in /  0.0 mm
19:01 80.1 °F /  26.7 °C 54.9 °F /  12.7 °C 30 in /  1014.8 hPa SW 5.8 mph /  9.3 km/h 5.8 mph /  9.3 km/h 42 % 0 in /  0.0 mm
19:06 79.5 °F /  26.4 °C 54.3 °F /  12.4 °C 30 in /  1015.8 hPa SW 7.6 mph /  12.2 km/h 7.6 mph /  12.2 km/h 42 % 0 in /  0.0 mm
19:11 79 °F /  26.1 °C 54 °F /  12.2 °C 30 in /  1015.8 hPa WSW 5.8 mph /  9.3 km/h 5.8 mph /  9.3 km/h 42 % 0 in /  0.0 mm
19:16 78.3 °F /  25.7 °C 53.2 °F /  11.8 °C 30 in /  1015.8 hPa SW 5.8 mph /  9.3 km/h 5.8 mph /  9.3 km/h 42 % 0 in /  0.0 mm
19:21 78.1 °F /  25.6 °C 53.8 °F /  12.1 °C 30 in /  1014.8 hPa WSW 2.3 mph /  3.7 km/h 2.3 mph /  3.7 km/h 43 % 0 in /  0.0 mm
19:26 77.7 °F /  25.4 °C 53.4 °F /  11.9 °C 30 in /  1014.8 hPa SW 5.8 mph /  9.3 km/h 5.8 mph /  9.3 km/h 43 % 0 in /  0.0 mm
19:31 77.7 °F /  25.4 °C 54.1 °F /  12.3 °C 30 in /  1014.8 hPa SW 5.4 mph /  8.7 km/h 5.4 mph /  8.7 km/h 44 % 0 in /  0.0 mm
19:36 77.2 °F /  25.1 °C 53.6 °F /  12.0 °C 30 in /  1015.8 hPa WSW 3.5 mph /  5.6 km/h 3.5 mph /  5.6 km/h 44 % 0 in /  0.0 mm
19:41 76.6 °F /  24.8 °C 53.8 °F /  12.1 °C 30 in /  1015.8 hPa SW 3.5 mph /  5.6 km/h 3.5 mph /  5.6 km/h 45 % 0 in /  0.0 mm
19:46 76.3 °F /  24.6 °C 54 °F /  12.2 °C 30 in /  1015.8 hPa SW 3.5 mph /  5.6 km/h 3.5 mph /  5.6 km/h 46 % 0 in /  0.0 mm
19:51 75.9 °F /  24.4 °C 53.6 °F /  12.0 °C 30 in /  1015.8 hPa SSW 1.2 mph /  1.9 km/h   46 % 0 in /  0.0 mm
19:56 75.7 °F /  24.3 °C 53.4 °F /  11.9 °C 30 in /  1015.8 hPa ESE 1.2 mph /  1.9 km/h 1.2 mph /  1.9 km/h 46 % 0 in /  0.0 mm
20:01 75.9 °F /  24.4 °C 53.6 °F /  12.0 °C 30 in /  1015.8 hPa SW 1.2 mph /  1.9 km/h   46 % 0 in /  0.0 mm
20:06 75.7 °F /  24.3 °C 53.4 °F /  11.9 °C 30 in /  1014.8 hPa SSW 2.3 mph /  3.7 km/h 2.3 mph /  3.7 km/h 46 % 0 in /  0.0 mm
20:11 75.7 °F /  24.3 °C 54.1 °F /  12.3 °C 30 in /  1014.8 hPa SW 1.6 mph /  2.6 km/h 1.6 mph /  2.6 km/h 47 % 0 in /  0.0 mm
20:13 75.6 °F /  24.2 °C 54 °F /  12.2 °C 30 in /  1014.8 hPa WSW 2.3 mph /  3.7 km/h 2.3 mph /  3.7 km/h 47 % 0 in /  0.0 mm
20:18 75.7 °F /  24.3 °C 54.1 °F /  12.3 °C 30 in /  1014.8 hPa Calm     47 % 0 in /  0.0 mm
20:23 75 °F /  23.9 °C 53.4 °F /  11.9 °C 30 in /  1015.8 hPa ENE 2.3 mph /  3.7 km/h 2.3 mph /  3.7 km/h 47 % 0 in /  0.0 mm
20:28 74.7 °F /  23.7 °C 54.9 °F /  12.7 °C 30 in /  1015.8 hPa WSW 6.9 mph /  11.1 km/h 6.9 mph /  11.1 km/h 50 % 0 in /  0.0 mm
20:33 74.5 °F /  23.6 °C 55.2 °F /  12.9 °C 30 in /  1015.8 hPa NE 2.3 mph /  3.7 km/h 2.3 mph /  3.7 km/h 51 % 0 in /  0.0 mm
20:38 74.3 °F /  23.5 °C 56.7 °F /  13.7 °C 30 in /  1015.8 hPa ESE 5.8 mph /  9.3 km/h 5.8 mph /  9.3 km/h 54 % 0 in /  0.0 mm
20:43 73.9 °F /  23.3 °C 57.4 °F /  14.1 °C 30 in /  1015.8 hPa ESE 5.8 mph /  9.3 km/h 5.8 mph /  9.3 km/h 56 % 0 in /  0.0 mm
20:48 73.8 °F /  23.2 °C 57 °F /  13.9 °C 30 in /  1015.8 hPa NNE 4.6 mph /  7.4 km/h 4.6 mph /  7.4 km/h 56 % 0 in /  0.0 mm
20:53 73.4 °F /  23.0 °C 56.7 °F /  13.7 °C 30 in /  1015.8 hPa ESE 6.4 mph /  10.3 km/h 6.4 mph /  10.3 km/h 56 % 0 in /  0.0 mm
20:58 73.2 °F /  22.9 °C 57 °F /  13.9 °C 30 in /  1015.8 hPa NNE 5.8 mph /  9.3 km/h 5.8 mph /  9.3 km/h 57 % 0 in /  0.0 mm
21:03 72.9 °F /  22.7 °C 57.2 °F /  14.0 °C 30 in /  1015.8 hPa East 4.6 mph /  7.4 km/h 4.6 mph /  7.4 km/h 58 % 0 in /  0.0 mm
21:06 72.9 °F /  22.7 °C 57.2 °F /  14.0 °C 30 in /  1015.8 hPa ENE 4.6 mph /  7.4 km/h 4.6 mph /  7.4 km/h 58 % 0 in /  0.0 mm
21:11 72.7 °F /  22.6 °C 57.6 °F /  14.2 °C 30 in /  1015.8 hPa ENE 4.6 mph /  7.4 km/h 4.6 mph /  7.4 km/h 59 % 0 in /  0.0 mm
21:16 72.5 °F /  22.5 °C 57.4 °F /  14.1 °C 30 in /  1015.8 hPa ESE 2.3 mph /  3.7 km/h 2.3 mph /  3.7 km/h 59 % 0 in /  0.0 mm
21:21 72.3 °F /  22.4 °C 57.7 °F /  14.3 °C 30 in /  1015.8 hPa ENE 3.5 mph /  5.6 km/h 3.5 mph /  5.6 km/h 60 % 0 in /  0.0 mm
21:26 72.3 °F /  22.4 °C 57.7 °F /  14.3 °C 30 in /  1015.8 hPa SE 2.3 mph /  3.7 km/h 2.3 mph /  3.7 km/h 60 % 0 in /  0.0 mm
21:31 72 °F /  22.2 °C 57.4 °F /  14.1 °C 30 in /  1015.8 hPa SSE 4.6 mph /  7.4 km/h 4.6 mph /  7.4 km/h 60 % 0 in /  0.0 mm
21:36 72 °F /  22.2 °C 57.4 °F /  14.1 °C 30 in /  1015.8 hPa ENE 2.9 mph /  4.7 km/h 2.9 mph /  4.7 km/h 60 % 0 in /  0.0 mm
21:41 71.8 °F /  22.1 °C 57 °F /  13.9 °C 30 in /  1015.8 hPa ESE 2.3 mph /  3.7 km/h 2.3 mph /  3.7 km/h 60 % 0 in /  0.0 mm
21:46 71.6 °F /  22.0 °C 57 °F /  13.9 °C 30 in /  1015.8 hPa SSW 1.4 mph /  2.3 km/h 1.4 mph /  2.3 km/h 60 % 0 in /  0.0 mm
21:47 71.6 °F /  22.0 °C 57 °F /  13.9 °C 30 in /  1015.8 hPa SSW 1.2 mph /  1.9 km/h   60 % 0 in /  0.0 mm
21:52 71.4 °F /  21.9 °C 57.4 °F /  14.1 °C 30 in /  1015.8 hPa SW 0.9 mph /  1.4 km/h   61 % 0 in /  0.0 mm
21:57 71.2 °F /  21.8 °C 57 °F /  13.9 °C 30 in /  1015.8 hPa WSW 2.6 mph /  4.2 km/h 2.6 mph /  4.2 km/h 61 % 0 in /  0.0 mm
22:02 71.2 °F /  21.8 °C 57 °F /  13.9 °C 30 in /  1015.8 hPa WSW 2.3 mph /  3.7 km/h 2.3 mph /  3.7 km/h 61 % 0 in /  0.0 mm
22:07 71.1 °F /  21.7 °C 57.4 °F /  14.1 °C 30 in /  1015.8 hPa SW 2.3 mph /  3.7 km/h 2.3 mph /  3.7 km/h 62 % 0 in /  0.0 mm
22:12 70.9 °F /  21.6 °C 56.8 °F /  13.8 °C 30 in /  1015.8 hPa SSW 2.3 mph /  3.7 km/h 2.3 mph /  3.7 km/h 61 % 0 in /  0.0 mm
22:17 70.5 °F /  21.4 °C 56.5 °F /  13.6 °C 30 in /  1015.8 hPa WSW 5.8 mph /  9.3 km/h 5.8 mph /  9.3 km/h 61 % 0 in /  0.0 mm
22:22 70.3 °F /  21.3 °C 56.7 °F /  13.7 °C 30 in /  1016.8 hPa West 3.5 mph /  5.6 km/h 3.5 mph /  5.6 km/h 62 % 0 in /  0.0 mm
22:27 70.5 °F /  21.4 °C 56.5 °F /  13.6 °C 30 in /  1016.8 hPa WSW 3.5 mph /  5.6 km/h 3.5 mph /  5.6 km/h 61 % 0 in /  0.0 mm
22:32 70.5 °F /  21.4 °C 56.5 °F /  13.6 °C 30 in /  1016.8 hPa SW 2.6 mph /  4.2 km/h 2.6 mph /  4.2 km/h 61 % 0 in /  0.0 mm
22:37 70.5 °F /  21.4 °C 55.9 °F /  13.3 °C 30 in /  1016.8 hPa WSW 3.5 mph /  5.6 km/h 3.5 mph /  5.6 km/h 60 % 0 in /  0.0 mm
22:42 70.3 °F /  21.3 °C 55.8 °F /  13.2 °C 30 in /  1016.8 hPa SW 3.8 mph /  6.1 km/h 3.8 mph /  6.1 km/h 60 % 0 in /  0.0 mm
22:47 70.2 °F /  21.2 °C 55.6 °F /  13.1 °C 30 in /  1016.8 hPa West 3.5 mph /  5.6 km/h 3.5 mph /  5.6 km/h 60 % 0 in /  0.0 mm
22:52 70.2 °F /  21.2 °C 55.6 °F /  13.1 °C 30 in /  1016.8 hPa SSW 2.3 mph /  3.7 km/h 2.3 mph /  3.7 km/h 60 % 0 in /  0.0 mm
22:57 70.2 °F /  21.2 °C 55.6 °F /  13.1 °C 30 in /  1016.8 hPa WSW 2.4 mph /  3.9 km/h 2.4 mph /  3.9 km/h 60 % 0 in /  0.0 mm
23:02 70.2 °F /  21.2 °C 55.6 °F /  13.1 °C 30 in /  1016.8 hPa WSW 2.9 mph /  4.7 km/h 2.9 mph /  4.7 km/h 60 % 0 in /  0.0 mm
23:07 70 °F /  21.1 °C 55.9 °F /  13.3 °C 30 in /  1015.8 hPa SW 1.4 mph /  2.3 km/h 1.4 mph /  2.3 km/h 61 % 0 in /  0.0 mm
23:12 69.8 °F /  21.0 °C 55.8 °F /  13.2 °C 30 in /  1015.8 hPa Calm     61 % 0 in /  0.0 mm
23:17 69.8 °F /  21.0 °C 56.1 °F /  13.4 °C 30 in /  1015.8 hPa East 3.5 mph /  5.6 km/h 3.5 mph /  5.6 km/h 62 % 0 in /  0.0 mm
23:22 70 °F /  21.1 °C 55.9 °F /  13.3 °C 30 in /  1015.8 hPa ENE 2.3 mph /  3.7 km/h 2.3 mph /  3.7 km/h 61 % 0 in /  0.0 mm
23:27 69.8 °F /  21.0 °C 56.1 °F /  13.4 °C 30 in /  1015.8 hPa ENE 1.2 mph /  1.9 km/h   62 % 0 in /  0.0 mm
23:32 70 °F /  21.1 °C 56.5 °F /  13.6 °C 30 in /  1015.8 hPa ENE 1.2 mph /  1.9 km/h 1.2 mph /  1.9 km/h 62 % 0 in /  0.0 mm
23:37 70 °F /  21.1 °C 56.5 °F /  13.6 °C 30 in /  1015.8 hPa Calm     62 % 0 in /  0.0 mm
23:42 69.8 °F /  21.0 °C 56.1 °F /  13.4 °C 30 in /  1015.8 hPa Calm     62 % 0 in /  0.0 mm
23:47 69.8 °F /  21.0 °C 56.1 °F /  13.4 °C 30 in /  1015.8 hPa SW 2.3 mph /  3.7 km/h 2.3 mph /  3.7 km/h 62 % 0 in /  0.0 mm
23:52 69.6 °F /  20.9 °C 55.9 °F /  13.3 °C 30 in /  1015.8 hPa WSW 2.3 mph /  3.7 km/h 2.3 mph /  3.7 km/h 62 % 0 in /  0.0 mm
23:57 69.4 °F /  20.8 °C 55.9 °F /  13.3 °C 30 in /  1015.8 hPa WSW 2.3 mph /  3.7 km/h 2.3 mph /  3.7 km/h 62 % 0 in /  0.0 mm
Meteo Sesrovires
Elogis d' Weather Underground - 3.5 mb

Guio original per  Jim McMurry - jmcmurry@mwt.net Adaptat per a la plantilla per  Wim van der Kuil - Leuven-Template.eu

Trobareu la nostra informacio del temps tambe a:

Weather Underground

AWEKAS